Thunder radar more information blitzortung!


Radar de pluja more information rain snow radar


Visita la nostra xarxa de llocs de meteo:

Template documentation
and downloads

And another site



No particular awareness of the weather is required.    There are no Weather-warnings

Pagina Historial Weather Underground text

Diari Resum Abril 27, 2016 Unitats:  Mètric    Imperial   Tant
« Previous Dia
SegĂźent Dia »
Diari Setmana Mensual Anual Personalitzada
  Maxima: Minima: Media:
Temperatura: -17.8 °C -12.4 °C -11 °C
Punt de rosada: -17.8 °C -14.3 °C -13.7 °C
Humitat: Humidity % 68 % 72 %
Wind Speed: 0 km/h 2.6 km/h 12.6 km/h
RĂ fegues de vent: 0 km/h - -
Vent:- - East
Pression baro: 0 hPa 34293.4 hPa -
Precipitacions: 0 mm    
Historical Graphs
 
 
Dades de taula per Abril 27, 2016
Temps Temperatura Punt de rosada Pression baro Vent Wind Speed RĂ fegues de vent Humitat Rainfall Rate (Hourly)
-17.8 °C -17.8 °C 0 hPa Calm     Humidity % 0 mm
00:04 -10.7 °C -13.8 °C 34327.3 hPa ENE 15 km/h 15 km/h 69 % 0 mm
00:05 -11 °C -13.5 °C 34327.3 hPa ENE 7.7 km/h 7.7 km/h 74 % 0 mm
00:25 -10.9 °C -13.4 °C 34327.3 hPa NE 5.1 km/h 10.3 km/h 74 % 0 mm
00:35 -11 °C -13.5 °C 34293.4 hPa NE 5.1 km/h 12.9 km/h 74 % 0 mm
00:45 -10.9 °C -13.4 °C 34293.4 hPa ENE 5.1 km/h 10.3 km/h 74 % 0 mm
00:55 -10.9 °C -13.4 °C 34327.3 hPa ENE 7.7 km/h 10.3 km/h 74 % 0 mm
01:05 -10.9 °C -13.4 °C 34327.3 hPa ENE 5.1 km/h 10.3 km/h 74 % 0 mm
01:15 -10.9 °C -13.4 °C 34327.3 hPa ENE 12.9 km/h 12.9 km/h 74 % 0 mm
01:25 -10.9 °C -13.4 °C 34327.3 hPa ENE 2.6 km/h 7.7 km/h 74 % 0 mm
01:35 -11 °C -13.5 °C 34327.3 hPa ENE 5.1 km/h 7.7 km/h 74 % 0 mm
01:45 -11.1 °C -13.6 °C 34327.3 hPa East 5.1 km/h 7.7 km/h 74 % 0 mm
01:55 -11.1 °C -13.6 °C 34327.3 hPa East 2.6 km/h 5.1 km/h 74 % 0 mm
02:05 -11.1 °C -13.6 °C 34327.3 hPa East 2.6 km/h 5.1 km/h 74 % 0 mm
02:15 -11.2 °C -13.7 °C 34327.3 hPa East 5.1 km/h 10.3 km/h 74 % 0 mm
02:25 -11.2 °C -13.7 °C 34327.3 hPa ESE 5.1 km/h 7.7 km/h 74 % 0 mm
02:35 -11.2 °C -13.7 °C 34327.3 hPa East 5.1 km/h 10.3 km/h 74 % 0 mm
02:45 -11.2 °C -13.7 °C 34327.3 hPa East 2.6 km/h 7.7 km/h 74 % 0 mm
02:55 -11.1 °C -13.6 °C 34327.3 hPa ENE 2.6 km/h 5.1 km/h 74 % 0 mm
03:05 -11 °C -13.6 °C 34293.4 hPa ENE 5.1 km/h 7.7 km/h 73 % 0 mm
03:25 -10.9 °C -13.6 °C 34293.4 hPa ENE 7.7 km/h 10.3 km/h 73 % 0 mm
03:45 -10.8 °C -13.6 °C 34327.3 hPa ENE 5.1 km/h 7.7 km/h 72 % 0 mm
03:55 -10.8 °C -13.5 °C 34327.3 hPa ENE 7.7 km/h 10.3 km/h 72 % 0 mm
04:05 -10.7 °C -13.4 °C 34327.3 hPa ENE 7.7 km/h 12.9 km/h 72 % 0 mm
04:15 -10.6 °C -13.4 °C 34327.3 hPa ENE 5.1 km/h 7.7 km/h 72 % 0 mm
04:25 -10.4 °C -13.2 °C 34327.3 hPa ENE 7.7 km/h 10.3 km/h 72 % 0 mm
04:35 -10.3 °C -13 °C 34327.3 hPa ENE 7.7 km/h 12.9 km/h 72 % 0 mm
04:45 -10.1 °C -12.9 °C 34327.3 hPa East 7.7 km/h 12.9 km/h 71 % 0 mm
04:55 -10 °C -12.9 °C 34327.3 hPa East 7.7 km/h 15.6 km/h 71 % 0 mm
05:05 -10.2 °C -13 °C 34327.3 hPa East 15.6 km/h 15.6 km/h 71 % 0 mm
05:15 -10.2 °C -13 °C 34327.3 hPa East 12.9 km/h 15.6 km/h 71 % 0 mm
05:25 -10.2 °C -12.9 °C 34327.3 hPa East 5.1 km/h 15.6 km/h 72 % 0 mm
05:35 -10.1 °C -12.8 °C 34327.3 hPa East 5.1 km/h 12.9 km/h 72 % 0 mm
05:45 -9.7 °C -12.6 °C 34327.3 hPa East 15.6 km/h 15.6 km/h 71 % 0 mm
05:55 -9.7 °C -12.7 °C 34327.3 hPa ENE 7.7 km/h 10.3 km/h 70 % 0 mm
06:05 -9.8 °C -12.8 °C 34327.3 hPa East 15.6 km/h 15.6 km/h 70 % 0 mm
06:15 -9.8 °C -12.8 °C 34327.3 hPa East 7.7 km/h 15.6 km/h 70 % 0 mm
06:35 -9.4 °C -12.4 °C 34327.3 hPa East 12.9 km/h 20.8 km/h 70 % 0 mm
06:45 -9.2 °C -12.4 °C 34327.3 hPa ENE 12.9 km/h 23.3 km/h 68 % 0 mm
06:55 -9.4 °C -12.7 °C 34327.3 hPa ENE 15.6 km/h 25.9 km/h 68 % 0 mm
07:05 -9.5 °C -12.7 °C 34327.3 hPa ENE 18.2 km/h 20.8 km/h 68 % 0 mm
07:15 -9.6 °C -12.7 °C 34327.3 hPa East 12.9 km/h 15.6 km/h 69 % 0 mm
07:25 -9.8 °C -12.9 °C 34327.3 hPa East 20.8 km/h 33.6 km/h 69 % 0 mm
07:35 -9.8 °C -13.1 °C 34327.3 hPa East 15.6 km/h 20.8 km/h 68 % 0 mm
12:41 -9.9 °C -13.1 °C 34327.3 hPa East 20.9 km/h 20.9 km/h 68 % 0 mm
12:46 -9.9 °C -13.1 °C 34327.3 hPa West 17.9 km/h 17.9 km/h 68 % 0 mm
12:51 -10 °C -13.2 °C 34327.3 hPa SSE 29.8 km/h 29.8 km/h 68 % 0 mm
12:56 -10 °C -13.2 °C 34327.3 hPa ESE 20.9 km/h 20.9 km/h 68 % 0 mm
13:01 -10.1 °C -13.3 °C 34327.3 hPa ESE 9.3 km/h 12.2 km/h 68 % 0 mm
13:06 -10.1 °C -13.3 °C 34327.3 hPa ESE 23.8 km/h 23.8 km/h 68 % 0 mm
13:11 -10.2 °C -13.4 °C 34327.3 hPa ESE 20.3 km/h 20.3 km/h 68 % 0 mm
13:16 -10.2 °C -13.4 °C 34327.3 hPa ESE 15 km/h 15 km/h 68 % 0 mm
13:21 -10.2 °C -13.4 °C 34327.3 hPa South 20.9 km/h 20.9 km/h 68 % 0 mm
13:26 -10.3 °C -13.6 °C 34327.3 hPa SE 32.8 km/h 32.8 km/h 68 % 0 mm
13:31 -10.3 °C -13.6 °C 34327.3 hPa ESE 25.1 km/h 25.1 km/h 68 % 0 mm
13:36 -10.4 °C -13.6 °C 34327.3 hPa ESE 23.8 km/h 23.8 km/h 68 % 0 mm
13:41 -10.5 °C -13.7 °C 34327.3 hPa ESE 23.3 km/h 23.3 km/h 68 % 0 mm
13:46 -10.5 °C -13.7 °C 34327.3 hPa South 9.8 km/h 10.3 km/h 68 % 0 mm
13:51 -10.6 °C -13.8 °C 34327.3 hPa ESE 22 km/h 22 km/h 68 % 0 mm
13:56 -10.6 °C -13.7 °C 34327.3 hPa East 26.9 km/h 26.9 km/h 69 % 0 mm
14:01 -10.6 °C -13.7 °C 34327.3 hPa East 17.9 km/h 18.3 km/h 69 % 0 mm
14:06 -10.6 °C -13.7 °C 34327.3 hPa ESE 20.3 km/h 20.3 km/h 69 % 0 mm
14:11 -10.7 °C -13.7 °C 34327.3 hPa ESE 19.2 km/h 19.2 km/h 69 % 0 mm
14:16 -10.6 °C -13.6 °C 34327.3 hPa East 16.6 km/h 16.6 km/h 70 % 0 mm
14:21 -10.6 °C -13.6 °C 34327.3 hPa ESE 22 km/h 22 km/h 70 % 0 mm
14:26 -10.6 °C -13.6 °C 34327.3 hPa East 20.3 km/h 20.3 km/h 70 % 0 mm
14:31 -10.7 °C -13.7 °C 34327.3 hPa East 23.8 km/h 23.8 km/h 70 % 0 mm
14:36 -10.7 °C -13.7 °C 34327.3 hPa ESE 20.9 km/h 20.9 km/h 70 % 0 mm
14:41 -10.7 °C -13.7 °C 34327.3 hPa ESE 16.1 km/h 16.1 km/h 70 % 0 mm
14:46 -10.7 °C -13.6 °C 34361.1 hPa ESE 20.9 km/h 20.9 km/h 71 % 0 mm
14:51 -10.7 °C -13.6 °C 34361.1 hPa ESE 15.3 km/h 18.3 km/h 71 % 0 mm
14:56 -10.8 °C -13.6 °C 34361.1 hPa ESE 20.9 km/h 20.9 km/h 71 % 0 mm
15:01 -10.8 °C -13.6 °C 34361.1 hPa ENE 20.9 km/h 20.9 km/h 71 % 0 mm
15:06 -10.8 °C -13.6 °C 34361.1 hPa East 18.3 km/h 18.3 km/h 71 % 0 mm
15:11 -10.8 °C -13.6 °C 34361.1 hPa ESE 25.9 km/h 25.9 km/h 71 % 0 mm
15:16 -10.8 °C -13.6 °C 34361.1 hPa ESE 15 km/h 15 km/h 71 % 0 mm
15:21 -10.8 °C -13.7 °C 34361.1 hPa ESE 15 km/h 15 km/h 71 % 0 mm
15:26 -10.8 °C -13.6 °C 34361.1 hPa NNE 11.9 km/h 15.3 km/h 72 % 0 mm
15:36 -10.8 °C -13.6 °C 34361.1 hPa NNE 11.9 km/h 15.3 km/h 72 % 0 mm
15:46 -10.8 °C -13.5 °C 34361.1 hPa NE 11.9 km/h 11.9 km/h 72 % 0 mm
15:56 -10.7 °C -13.6 °C 34361.1 hPa NE 6.8 km/h 10.3 km/h 71 % 0 mm
16:01 -10.7 °C -13.5 °C 34361.1 hPa ESE 12.2 km/h 12.2 km/h 71 % 0 mm
16:06 -10.7 °C -13.5 °C 34361.1 hPa ESE 12.2 km/h 12.2 km/h 71 % 0 mm
16:11 -10.6 °C -13.4 °C 34361.1 hPa ESE 12.2 km/h 12.2 km/h 71 % 0 mm
16:16 -10.6 °C -13.4 °C 34327.3 hPa ESE 12.2 km/h 12.2 km/h 71 % 0 mm
16:21 -10.6 °C -13.6 °C 34327.3 hPa ESE 12.7 km/h 15.3 km/h 70 % 0 mm
16:26 -10.6 °C -13.5 °C 34327.3 hPa NNE 15 km/h 15 km/h 70 % 0 mm
16:31 -10.6 °C -13.5 °C 34327.3 hPa SSW 20.9 km/h 20.9 km/h 70 % 0 mm
16:36 -10.6 °C -13.7 °C 34327.3 hPa ESE 16.6 km/h 16.6 km/h 69 % 0 mm
16:41 -10.5 °C -13.6 °C 34327.3 hPa SE 16.1 km/h 16.1 km/h 69 % 0 mm
16:46 -10.5 °C -13.6 °C 34293.4 hPa SE 16.1 km/h 16.1 km/h 69 % 0 mm
16:51 -10.5 °C -13.6 °C 34293.4 hPa SSE 11.9 km/h 11.9 km/h 69 % 0 mm
17:01 -10.6 °C -13.7 °C 34327.3 hPa SSE 20.9 km/h 20.9 km/h 69 % 0 mm
17:06 -10.6 °C -13.7 °C 34327.3 hPa SSE 8 km/h 8 km/h 69 % 0 mm
17:11 -10.6 °C -13.7 °C 34327.3 hPa SE 11.9 km/h 11.9 km/h 69 % 0 mm
17:16 -10.6 °C -13.7 °C 34327.3 hPa SSE 20.9 km/h 20.9 km/h 69 % 0 mm
17:21 -10.6 °C -13.7 °C 34327.3 hPa ESE 17.9 km/h 17.9 km/h 69 % 0 mm
17:26 -10.6 °C -13.7 °C 34327.3 hPa ESE 9 km/h 9 km/h 69 % 0 mm
17:31 -10.6 °C -13.7 °C 34327.3 hPa ESE 15 km/h 15 km/h 69 % 0 mm
17:36 -10.6 °C -13.7 °C 34327.3 hPa ESE 17.9 km/h 17.9 km/h 69 % 0 mm
17:46 -10.6 °C -13.7 °C 34327.3 hPa ESE 15 km/h 15 km/h 69 % 0 mm
17:51 -10.6 °C -13.7 °C 34327.3 hPa East 26.9 km/h 26.9 km/h 69 % 0 mm
17:56 -10.6 °C -13.7 °C 34327.3 hPa East 15 km/h 15.3 km/h 69 % 0 mm
18:01 -10.7 °C -13.7 °C 34327.3 hPa East 15 km/h 15.3 km/h 69 % 0 mm
18:06 -10.7 °C -13.7 °C 34327.3 hPa ESE 11.9 km/h 14.5 km/h 69 % 0 mm
18:11 -10.7 °C -13.7 °C 34327.3 hPa ESE 15 km/h 15 km/h 69 % 0 mm
18:16 -10.6 °C -13.7 °C 34327.3 hPa South 16.6 km/h 16.6 km/h 69 % 0 mm
18:21 -10.7 °C -13.8 °C 34327.3 hPa ESE 17.9 km/h 18.3 km/h 69 % 0 mm
18:26 -10.7 °C -13.8 °C 34293.4 hPa ESE 11.9 km/h 14.5 km/h 69 % 0 mm
18:31 -10.7 °C -13.7 °C 34293.4 hPa East 20.9 km/h 20.9 km/h 69 % 0 mm
18:36 -10.8 °C -13.8 °C 34293.4 hPa ESE 18.3 km/h 18.3 km/h 69 % 0 mm
18:41 -10.8 °C -13.8 °C 34327.3 hPa ESE 15 km/h 15 km/h 69 % 0 mm
18:46 -10.8 °C -13.8 °C 34327.3 hPa ESE 15 km/h 15 km/h 69 % 0 mm
18:51 -10.8 °C -13.8 °C 34327.3 hPa East 20.9 km/h 20.9 km/h 69 % 0 mm
18:56 -10.8 °C -13.9 °C 34327.3 hPa ESE 17.9 km/h 17.9 km/h 69 % 0 mm
19:01 -10.8 °C -13.9 °C 34327.3 hPa ESE 11.9 km/h 11.9 km/h 69 % 0 mm
19:06 -10.8 °C -13.9 °C 34327.3 hPa ESE 15 km/h 15 km/h 69 % 0 mm
19:11 -10.8 °C -13.9 °C 34327.3 hPa East 9 km/h 9 km/h 69 % 0 mm
19:15 -12 °C -13.9 °C 34327.3 hPa ENE 7.7 km/h 7.7 km/h 79 % 0 mm
19:16 -10.9 °C -13.9 °C 34327.3 hPa ESE 20.9 km/h 20.9 km/h 69 % 0 mm
19:21 -10.9 °C -13.9 °C 34327.3 hPa SSE 15 km/h 15 km/h 69 % 0 mm
19:25 -12.1 °C -14 °C 34327.3 hPa NE 5.1 km/h 7.7 km/h 79 % 0 mm
19:26 -10.9 °C -13.8 °C 34327.3 hPa East 15 km/h 15 km/h 70 % 0 mm
19:31 -10.9 °C -13.8 °C 34327.3 hPa SE 11.1 km/h 11.1 km/h 70 % 0 mm
19:35 -12.1 °C -14.1 °C 34327.3 hPa ENE 7.7 km/h 10.3 km/h 79 % 0 mm
19:36 -10.9 °C -13.9 °C 34327.3 hPa ESE 20.9 km/h 20.9 km/h 70 % 0 mm
19:41 -10.9 °C -13.9 °C 34327.3 hPa SSE 18.3 km/h 18.3 km/h 70 % 0 mm
19:45 -12.2 °C -14 °C 34327.3 hPa NE 5.1 km/h 10.3 km/h 80 % 0 mm
19:46 -11 °C -13.9 °C 34327.3 hPa ESE 16.6 km/h 16.6 km/h 70 % 0 mm
19:51 -11 °C -13.9 °C 34327.3 hPa SSE 17.9 km/h 17.9 km/h 70 % 0 mm
19:55 -12.2 °C -14 °C 34327.3 hPa NE 5.1 km/h 10.3 km/h 80 % 0 mm
19:56 -11 °C -13.9 °C 34327.3 hPa ESE 9.3 km/h 9.8 km/h 70 % 0 mm
20:01 -11 °C -13.9 °C 34327.3 hPa ENE 19.2 km/h 19.2 km/h 70 % 0 mm
20:05 -12.2 °C -13.9 °C 34327.3 hPa NE 5.1 km/h 7.7 km/h 81 % 0 mm
20:06 -11 °C -13.9 °C 34327.3 hPa ESE 17.9 km/h 17.9 km/h 70 % 0 mm
20:11 -11 °C -13.9 °C 34327.3 hPa East 17.9 km/h 17.9 km/h 70 % 0 mm
20:15 -12.2 °C -13.8 °C 34327.3 hPa NE 2.6 km/h 7.7 km/h 82 % 0 mm
20:16 -11.1 °C -14 °C 34327.3 hPa ESE 15.6 km/h 15.6 km/h 70 % 0 mm
20:21 -11.1 °C -14 °C 34327.3 hPa SSE 20.9 km/h 20.9 km/h 70 % 0 mm
20:25 -12.2 °C -13.8 °C 34327.3 hPa ENE 7.7 km/h 7.7 km/h 82 % 0 mm
20:26 -11.1 °C -14 °C 34293.4 hPa ESE 15 km/h 15 km/h 70 % 0 mm
20:31 -11.1 °C -14 °C 34293.4 hPa ESE 15 km/h 15.6 km/h 70 % 0 mm
20:35 -12.3 °C -13.9 °C 34327.3 hPa ENE 5.1 km/h 7.7 km/h 82 % 0 mm
20:36 -11.1 °C -14.1 °C 34293.4 hPa East 15 km/h 15.6 km/h 69 % 0 mm
20:41 -11.1 °C -14 °C 34327.3 hPa East 15 km/h 15.6 km/h 70 % 0 mm
20:45 -12.3 °C -13.9 °C 34327.3 hPa NE 7.7 km/h 10.3 km/h 82 % 0 mm
20:46 -11.1 °C -14 °C 34327.3 hPa East 15 km/h 15.6 km/h 70 % 0 mm
20:47 -11.1 °C -14 °C 34327.3 hPa East 15 km/h 15.6 km/h 70 % 0 mm
20:52 -11.1 °C -14.1 °C 34327.3 hPa East 15 km/h 15.6 km/h 70 % 0 mm
20:57 -11.1 °C -14.1 °C 34327.3 hPa East 15 km/h 15.6 km/h 70 % 0 mm
21:02 -11.1 °C -14.2 °C 34327.3 hPa East 15 km/h 15.6 km/h 69 % 0 mm
21:05 -12.3 °C -13.8 °C 34327.3 hPa ENE 5.1 km/h 7.7 km/h 83 % 0 mm
21:07 -11.1 °C -14.2 °C 34327.3 hPa East 15 km/h 15.6 km/h 69 % 0 mm
21:12 -11.1 °C -14.2 °C 34293.4 hPa East 15 km/h 15.6 km/h 69 % 0 mm
21:15 -12.4 °C -13.9 °C 34327.3 hPa ENE 5.1 km/h 7.7 km/h 83 % 0 mm
21:17 -11.1 °C -14.2 °C 34293.4 hPa East 15 km/h 15.6 km/h 69 % 0 mm
21:22 -11.1 °C -14.2 °C 34293.4 hPa East 15 km/h 15.6 km/h 69 % 0 mm
21:25 -12.3 °C -13.8 °C 34327.3 hPa ENE 2.6 km/h 5.1 km/h 84 % 0 mm
21:27 -11.1 °C -14.2 °C 34327.3 hPa East 15 km/h 15.6 km/h 69 % 0 mm
21:32 -11.1 °C -14.2 °C 34327.3 hPa East 15 km/h 15.6 km/h 69 % 0 mm
21:35 -12.3 °C -13.8 °C 34293.4 hPa ENE 2.6 km/h 7.7 km/h 84 % 0 mm
21:37 -11.1 °C -14.1 °C 34327.3 hPa East 15 km/h 15.6 km/h 70 % 0 mm
21:42 -11.1 °C -14.1 °C 34327.3 hPa East 15 km/h 15.6 km/h 70 % 0 mm
21:45 -12.4 °C -13.9 °C 34327.3 hPa ENE 7.7 km/h 10.3 km/h 83 % 0 mm
21:47 -11.1 °C -14.2 °C 34327.3 hPa East 15 km/h 15.6 km/h 69 % 0 mm
21:52 -11.2 °C -14.2 °C 34327.3 hPa East 15 km/h 15.6 km/h 69 % 0 mm
21:55 -12.4 °C -13.8 °C 34327.3 hPa ENE 2.6 km/h 7.7 km/h 84 % 0 mm
21:57 -11.2 °C -14.2 °C 34327.3 hPa East 15 km/h 15.6 km/h 69 % 0 mm
22:02 -11.2 °C -14.2 °C 34327.3 hPa East 15 km/h 15.6 km/h 69 % 0 mm
22:05 -12.3 °C -13.8 °C 34327.3 hPa NE 5.1 km/h 7.7 km/h 84 % 0 mm
22:07 -11.2 °C -14.2 °C 34327.3 hPa East 15 km/h 15.6 km/h 69 % 0 mm
22:12 -11.2 °C -14.2 °C 34327.3 hPa East 15 km/h 15.6 km/h 69 % 0 mm
22:15 -12.3 °C -13.8 °C 34327.3 hPa NE 7.7 km/h 10.3 km/h 84 % 0 mm
22:17 -11.2 °C -14.3 °C 34327.3 hPa ENE 9 km/h 14 km/h 69 % 0 mm
22:22 -11.2 °C -14.3 °C 34327.3 hPa ENE 9 km/h 14 km/h 69 % 0 mm
22:25 -12.3 °C -13.8 °C 34327.3 hPa NNE 7.7 km/h 10.3 km/h 84 % 0 mm
22:27 -11.2 °C -14.3 °C 34327.3 hPa ENE 9 km/h 14 km/h 69 % 0 mm
22:32 -11.2 °C -14.3 °C 34327.3 hPa ENE 9 km/h 14 km/h 69 % 0 mm
22:35 -12.3 °C -13.8 °C 34327.3 hPa NNE 7.7 km/h 10.3 km/h 84 % 0 mm
22:37 -11.2 °C -14.3 °C 34327.3 hPa ENE 9 km/h 14 km/h 69 % 0 mm
22:42 -11.2 °C -14.3 °C 34327.3 hPa ENE 9 km/h 14 km/h 69 % 0 mm
22:45 -12.3 °C -13.8 °C 34327.3 hPa NE 5.1 km/h 10.3 km/h 84 % 0 mm
22:47 -11.2 °C -14.3 °C 34327.3 hPa ENE 9 km/h 14 km/h 69 % 0 mm
22:52 -11.2 °C -14.2 °C 34327.3 hPa ENE 9 km/h 14 km/h 70 % 0 mm
22:55 -12.3 °C -13.8 °C 34327.3 hPa NE 5.1 km/h 7.7 km/h 84 % 0 mm
22:57 -11.3 °C -14.2 °C 34327.3 hPa ENE 9 km/h 14 km/h 70 % 0 mm
23:02 -11.4 °C -14.1 °C 34327.3 hPa ENE 9 km/h 9.8 km/h 72 % 0 mm
23:05 -12.3 °C -13.8 °C 34293.4 hPa ENE 5.1 km/h 10.3 km/h 84 % 0 mm
23:07 -11.4 °C -14.1 °C 34327.3 hPa ENE 9 km/h 9 km/h 72 % 0 mm
23:12 -11.5 °C -14.1 °C 34361.1 hPa NNE 6.8 km/h 6.8 km/h 73 % 0 mm
23:15 -12.4 °C -13.8 °C 34327.3 hPa ENE 7.7 km/h 15.6 km/h 84 % 0 mm
23:17 -11.6 °C -14.1 °C 34361.1 hPa East 6 km/h 6 km/h 74 % 0 mm
23:22 -11.7 °C -14.1 °C 34361.1 hPa ENE 6.3 km/h 6.3 km/h 75 % 0 mm
23:25 -12.3 °C -13.8 °C 34327.3 hPa ENE 2.6 km/h 10.3 km/h 84 % 0 mm
23:27 -11.7 °C -14.1 °C 34327.3 hPa ENE 6 km/h 6 km/h 75 % 0 mm
23:32 -11.8 °C -14.1 °C 34327.3 hPa ENE 6.3 km/h 6.3 km/h 76 % 0 mm
23:35 -12.3 °C -13.8 °C 34327.3 hPa ENE 5.1 km/h 7.7 km/h 83 % 0 mm
23:37 -11.8 °C -13.9 °C 34327.3 hPa East 9.8 km/h 9.8 km/h 77 % 0 mm
23:42 -11.8 °C -14 °C 34327.3 hPa East 9.8 km/h 9.8 km/h 77 % 0 mm
23:45 -12.3 °C -13.8 °C 34293.4 hPa East 5.1 km/h 7.7 km/h 84 % 0 mm
23:47 -11.9 °C -14.1 °C 34327.3 hPa East 9.8 km/h 9.8 km/h 77 % 0 mm
23:52 -11.9 °C -14.1 °C 34327.3 hPa ENE 3.7 km/h 4.2 km/h 77 % 0 mm
23:55 -12.3 °C -13.8 °C 34293.4 hPa ENE 5.1 km/h 7.7 km/h 84 % 0 mm
23:57 -11.9 °C -14 °C 34327.3 hPa East 6.3 km/h 6.3 km/h 78 % 0 mm
Meteo Sesrovires
Elogis d' Weather Underground - 2 mb

Guio original per  Jim McMurry - jmcmurry@mwt.net Adaptat per a la plantilla per  Wim van der Kuil - Leuven-Template.eu

Trobareu la nostra informacio del temps tambe a:

Weather Underground

AWEKAS